Terminal Aerodrome Forecast
Issued by NWS

Home | Current Version | Previous Version | Text Only | Print | Product List | Glossary On
Versions: 1 2 3 4 5 6 7 8 9 10 11 12 13 14 15 16 17
000
FTUS42 KTAE 302320
TAFABY
TAF
KABY 302320Z 3100/3124 20012KT P6SM BKN110 OVC250
     FM310300 20012KT 4SM RA VCTS BKN020CB
     FM310600 23008KT P6SM SCT020 BKN050 OVC110
     FM311500 27010G15KT P6SM SCT040=

USA.gov is the U.S. government's official web portal to all federal, state and local government web resources and services.